Tiempo atmosférico en la estación meteorológica de Villanueva Del Arzobispo, Jaén (680 m.)



Fecha
DESCASC
Temp. máxima en grados centígrados (hora)
DESCASC
Temp. mínima en grados centígrados (hora)
DESCASC
Temp. media en grados centígrados
DESCASC
Racha de viento máxima en m/sg (hora)
DESCASC
Velocidad máxima media en intervalos de 10 minutos(hora)
DESCASC
Precipitaciones diarias en mm
DESCASC
Precipitaciones de 00:00 a 06:00 en mm
DESCASC
Precipitaciones de 06:00 a 12:00 en mm
DESCASC
Precipitaciones de 12:00 a 18:00 en mm
DESCASC
Precipitaciones de 18:00 a 24:00 en mm
DESCASC
27-10-2020 16 (13:40) 4.8 (08:40) 10.4 4.72 (13:50) 2.5 (14:10) 0 0 0 0 0
26-10-2020 14.9 (14:20) 7.5 (23:59) 11.2 10 (06:00) 4.17 (01:20) 7.8 7.6 0.2 0 0
25-10-2020 17.5 (14:30) 9.7 (04:10) 13.6 9.44 (21:30) 5.28 (21:20) 0.6 0 0 0 0.6
24-10-2020 19.6 (15:30) 8.2 (00:00) 13.9 5.28 (16:30) 2.5 (16:00) 0 0 0 0 0
23-10-2020 17.5 (14:30) 11.4 (00:00) 14.4 7.5 (01:40) 3.89 (01:30) 2.6 1.4 1.2 0 0
22-10-2020 16.2 (01:10) 12.4 (00:00) 14.3 5 (09:30) 2.78 (22:30) 4.6 0 3.2 1.4 0
21-10-2020 22.5 (00:00) 13 (00:00) 17.8 11.94 (00:10) 6.67 (00:10) 3.2 3 0 0.2 0
20-10-2020 29.2 (15:20) 16.5 (00:00) 22.9 13.33 (23:59) 6.67 (23:59) 0 0 0 0 0
19-10-2020 29 (15:30) 7.3 (00:00) 18.2 7.22 (18:10) 4.17 (18:10) 0 0 0 0 0
18-10-2020 24.9 (15:20) 5.3 (00:00) 15.1 3.89 (22:10) 1.67 (13:30) 0 0 0 0 0
17-10-2020 21.1 (16:00) 4.3 (00:00) 12.7 4.72 (15:40) 1.94 (14:00) 0 0 0 0 0
16-10-2020 19.8 (16:20) 4.4 (00:00) 12.1 5 (14:30) 1.94 (14:30) 0 0 0 0 0
15-10-2020 20.2 (16:00) 4.5 (00:00) 12.4 6.39 (15:10) 2.5 (17:20) 0 0 0 0 0
14-10-2020 20.5 (15:30) 10.3 (00:00) 15.4 8.33 (07:50) 3.89 (17:20) 0 0 0 0 0
13-10-2020 24.5 (16:10) 6.8 (00:00) 15.7 5.28 (23:30) 2.5 (21:40) 0 0 0 0 0
12-10-2020 20.3 (18:10) 5.8 (00:00) 13 6.67 (15:20) 3.33 (10:30) 0 0 0 0 0
11-10-2020 23.7 (15:50) 11.7 (00:00) 17.7 7.22 (18:00) 3.61 (15:30) 0 0 0 0 0
10-10-2020 29.1 (16:10) 12.5 (00:00) 20.8 4.17 (16:00) 3.06 (01:20) 0 0 0 0 0
09-10-2020 29 (16:00) 13.1 (00:00) 21.1 3.61 (02:00) 1.67 (00:30) 0 0 0 0 0
08-10-2020 29.1 (15:20) 11.5 (00:00) 20.3 5.83 (16:10) 2.5 (22:50) 0 0 0 0 0
07-10-2020 28.9 (18:20) 10.2 (00:00) 19.5 4.72 (13:50) 2.22 (13:50) 0 0 0 0 0
06-10-2020 25.8 (18:20) 7.9 (00:00) 16.8 5 (16:00) 2.5 (14:40) 0 0 0 0 0
05-10-2020 20.5 (16:00) 9.8 (00:00) 15.2 4.72 (14:50) 2.5 (09:20) 0 0 0 0 0
04-10-2020 18.2 (14:20) 8.3 (00:00) 13.3 7.78 (14:00) 4.44 (14:20) 0 0 0 0 0
03-10-2020 16.5 (16:00) 7.1 (00:00) 11.8 7.5 (02:50) 4.17 (14:20) 0 0 0 0 0
02-10-2020 19.1 (00:20) 10.4 (00:00) 14.8 16.39 (16:00) 8.33 (15:00) 11 0 0 10.6 0.4
01-10-2020 25.4 (15:40) 13.8 (00:00) 19.6 10 (22:10) 4.17 (21:10) 0 0 0 0 0
30-09-2020 26.6 (14:50) 14.1 (00:00) 20.4 5.28 (06:10) 2.22 (06:10) 0 0 0 0 0

Gráficas

Temp. máximas Temp. mínimas Temp. medias Precipitaciones Rachas de viento máximas Velocidades máximas media en intervalos de 10 minutos

Datos horarios

Fecha y hora oficial Temperatura (ºC) Velocidad del viento (km/h) Dirección del viento Racha (km/h) Dirección de racha Precipitación (mm) Presión (hPa) Tendencia (hPa) Humedad (%)
2020-10-29 23:00:00 13 3 Sur 6 Sur 0 -- -- 79
2020-10-29 22:00:00 14 5 Sur 7 Sur 0 -- -- 73
2020-10-29 21:00:00 14.6 2 Sur 5 Sur 0 -- -- 68
2020-10-29 20:00:00 15.6 0 Calma 4 Norte 0 -- -- 64
2020-10-29 19:00:00 16.5 0 Calma 5 Sur 0 -- -- 60
2020-10-29 18:00:00 20.9 3 Sudoeste 6 Sur 0 -- -- 46
2020-10-29 17:00:00 23.3 4 Noroeste 8 Norte 0 -- -- 38
2020-10-29 16:00:00 23.4 4 Oeste 8 Oeste 0 -- -- 38
2020-10-29 15:00:00 24.1 4 Oeste 13 Noroeste 0 -- -- 38
2020-10-29 14:00:00 22.8 8 Noroeste 13 Norte 0 -- -- 44
2020-10-29 13:00:00 21.3 7 Noroeste 11 Noroeste 0 -- -- 51
2020-10-29 12:00:00 18.8 3 Oeste 7 Noroeste 0 -- -- 60
2020-10-29 11:00:00 15.5 0 Calma 4 Noroeste 0 -- -- 70
2020-10-29 10:00:00 12 2 Oeste 4 Oeste 0 -- -- 86
2020-10-29 09:00:00 9.1 3 Sur 5 Sur 0 -- -- 94
2020-10-29 08:00:00 8 3 Sur 6 Sur 0 -- -- 93
2020-10-29 07:00:00 8.3 3 Sur 7 Sur 0 -- -- 93
2020-10-29 06:00:00 7.9 0 Calma 5 Sur 0 -- -- 92
2020-10-29 05:00:00 8.5 0 Calma 9 Sur 0 -- -- 90
2020-10-29 04:00:00 8.5 0 Calma 4 Nordeste 0 -- -- 88
2020-10-29 03:00:00 9.4 0 Calma 6 Sur 0 -- -- 86
2020-10-29 02:00:00 10.8 5 Sur 8 Sur 0 -- -- 83
2020-10-29 01:00:00 10.2 4 Sur 6 Sur 0 -- -- 85
2020-10-29 00:00:00 10.6 0 Calma 8 Sur 0 -- -- 81
2020-10-28 23:00:00 10.9 0 Calma 7 Sur 0 -- -- 79
2020-10-28 22:00:00 12 0 Calma 4 Sur 0 -- -- 75
2020-10-28 21:00:00 12.5 0 Calma 6 Sur 0 -- -- 71
2020-10-28 20:00:00 13.1 0 Calma 3 Sudeste 0 -- -- 70
2020-10-28 19:00:00 14.4 0 Calma 5 Sudoeste 0 -- -- 65
2020-10-28 18:00:00 18.7 0 Calma 6 Nordeste 0 -- -- 50
2020-10-28 17:00:00 20.2 4 Norte 11 Norte 0 -- -- 43
2020-10-28 16:00:00 20.1 5 Norte 10 Noroeste 0 -- -- 40
2020-10-28 15:00:00 19.4 3 Noroeste 9 Norte 0 -- -- 43
2020-10-28 14:00:00 18.7 4 Noroeste 12 Noroeste 0 -- -- 48
2020-10-28 13:00:00 16.4 4 Noroeste 9 Noroeste 0 -- -- 54
2020-10-28 12:00:00 14.3 4 Norte 8 Noroeste 0 -- -- 60
2020-10-28 11:00:00 11.8 0 Calma 5 Noroeste 0 -- -- 71
2020-10-28 10:00:00 9.3 3 Noroeste 5 Noroeste 0 -- -- 86
2020-10-28 09:00:00 6 0 Calma 5 Sur 0 -- -- 93
2020-10-28 08:00:00 5.3 4 Sur 7 Sur 0 -- -- 93
2020-10-28 07:00:00 5.2 0 Calma 5 Norte 0 -- -- 92
2020-10-28 06:00:00 5.3 2 Sur 6 Sur 0 -- -- 92
2020-10-28 05:00:00 5 0 Calma 4 Sur 0 -- -- 92
2020-10-28 04:00:00 5.1 2 Sudoeste 4 Sur 0 -- -- 91
2020-10-28 03:00:00 5.6 0 Calma 4 Sur 0 -- -- 90
2020-10-28 02:00:00 5.9 0 Calma 3 Sur 0 -- -- 88
2020-10-28 01:00:00 6.5 0 Calma 3 Sudoeste 0 -- -- 85
2020-10-28 00:00:00 7.6 0 Calma 5 Sur 0 -- -- 82
2020-10-27 23:00:00 7.7 0 Calma 2 Sur 0 -- -- 81
2020-10-27 22:00:00 8.6 0 Calma 7 Sudeste 0 -- -- 76
2020-10-27 21:00:00 8.7 0 Calma 9 Sudeste 0 -- -- 76
2020-10-27 20:00:00 9.3 0 Calma 5 Sur 0 -- -- 73
2020-10-27 19:00:00 10.5 2 Sur 5 Sudoeste 0 -- -- 69
2020-10-27 18:00:00 13.7 3 Oeste 10 Oeste 0 -- -- 53
2020-10-27 17:00:00 14.4 5 Noroeste 13 Sudoeste 0 -- -- 50
2020-10-27 16:00:00 15.1 4 Oeste 14 Oeste 0 -- -- 48
2020-10-27 15:00:00 15.2 7 Oeste 15 Oeste 0 -- -- 47
2020-10-27 14:00:00 14.7 5 Oeste 17 Oeste 0 -- -- 48
2020-10-27 13:00:00 15.6 6 Oeste 14 Sudoeste 0 -- -- 48
2020-10-27 12:00:00 13.3 3 Oeste 9 Oeste 0 -- -- 60
2020-10-27 11:00:00 11.6 3 Norte 10 Sudoeste 0 -- -- 67
2020-10-27 10:00:00 9.7 4 Sudoeste 11 Sudoeste 0 -- -- 72
2020-10-27 09:00:00 6.1 5 Sur 9 Sur 0 -- -- 90
2020-10-27 08:00:00 5.7 5 Sur 11 Sur 0 -- -- 86
2020-10-27 07:00:00 5.8 5 Sur 13 Sur 0 -- -- 86
2020-10-27 06:00:00 5.6 5 Sur 9 Sur 0 -- -- 90
2020-10-27 05:00:00 5.7 4 Sur 8 Sudeste 0 -- -- 89
2020-10-27 04:00:00 5.7 4 Sur 8 Sudeste 0 -- -- 90
2020-10-27 03:00:00 5.3 2 Sur 5 Sudeste 0 -- -- 90
2020-10-27 02:00:00 6 2 Sur 8 Sudeste 0 -- -- 87
2020-10-27 01:00:00 6.1 2 Sur 6 Sudeste 0 -- -- 86
2020-10-27 00:00:00 7.5 0 Calma 9 Sur 0 -- -- 79
2020-10-26 23:00:00 8.3 4 Sur 12 Sur 0 -- -- 78
2020-10-26 22:00:00 8.5 5 Sur 12 Sudoeste 0 -- -- 77
2020-10-26 21:00:00 9.4 5 Sur 11 Sur 0 -- -- 73
2020-10-26 20:00:00 10.3 5 Sur 12 Sur 0 -- -- 71
2020-10-26 19:00:00 11.6 6 Sur 12 Sur 0 -- -- 67
2020-10-26 18:00:00 12.8 2 Norte 14 Oeste 0 -- -- 60
2020-10-26 17:00:00 13.2 4 Oeste 18 Oeste 0 -- -- 56
2020-10-26 16:00:00 13 4 Sudoeste 15 Noroeste 0 -- -- 60
2020-10-26 15:00:00 13.7 8 Oeste 19 Noroeste 0 -- -- 58
2020-10-26 14:00:00 13.3 8 Oeste 15 Noroeste 0 -- -- 60
2020-10-26 13:00:00 11.2 6 Oeste 15 Sudoeste 0 -- -- 67
2020-10-26 12:00:00 11.3 5 Oeste 14 Sudoeste 0 -- -- 70
2020-10-26 11:00:00 10 7 Sudoeste 14 Sudoeste 0 -- -- 79
2020-10-26 10:00:00 9.2 3 Oeste 21 Sudoeste 0 -- -- 85
2020-10-26 09:00:00 8.9 8 Oeste 23 Sur 0.2 -- -- 90
2020-10-26 08:00:00 8.9 7 Oeste 21 Sudoeste 0 -- -- 91
2020-10-26 07:00:00 9 12 Sudoeste 26 Sudoeste 0 -- -- 92
2020-10-26 06:00:00 9.6 12 Sudoeste 36 Sudoeste 0 -- -- 92
2020-10-26 05:00:00 10 10 Sudoeste 28 Sudoeste 0.2 -- -- 92
2020-10-26 04:00:00 10.3 7 Sudoeste 20 Sudoeste 0.8 -- -- 94
2020-10-26 03:00:00 11.3 7 Noroeste 26 Oeste 1.6 -- -- 94
2020-10-26 02:00:00 12 5 Oeste 28 Sudoeste 2.2 -- -- 94
2020-10-26 01:00:00 11.6 12 Sur 23 Sur 2.8 -- -- 91
2020-10-26 00:00:00 11.7 9 Sur 22 Sudoeste 0.6 -- -- 87
2020-10-25 23:00:00 12.8 6 Sudoeste 24 Sur 0 -- -- 80
2020-10-25 22:00:00 13.7 13 Sur 34 Sudoeste 0 -- -- 73
2020-10-25 21:00:00 14.1 13 Sur 28 Sudoeste 0 -- -- 67
2020-10-25 20:00:00 14.1 9 Sudoeste 19 Sudoeste 0 -- -- 66
2020-10-25 19:00:00 13.6 9 Sudoeste 22 Sudoeste 0 -- -- 70
2020-10-25 18:00:00 14.1 10 Sudoeste 21 Oeste 0 -- -- 68
2020-10-25 17:00:00 14.9 9 Oeste 23 Sudoeste 0 -- -- 68
2020-10-25 16:00:00 15.9 9 Oeste 23 Oeste 0 -- -- 63
2020-10-25 15:00:00 16.6 9 Oeste 24 Sudoeste 0 -- -- 59
2020-10-25 14:00:00 16.3 8 Oeste 19 Sudoeste 0 -- -- 63
2020-10-25 13:00:00 15.3 10 Oeste 24 Oeste 0 -- -- 66
2020-10-25 12:00:00 14.6 7 Oeste 19 Oeste 0 -- -- 70
2020-10-25 11:00:00 15 9 Sudoeste 19 Sudoeste 0 -- -- 68
2020-10-25 10:00:00 14 7 Sudoeste 13 Sudoeste 0 -- -- 72
2020-10-25 09:00:00 12.4 5 Sur 11 Sudeste 0 -- -- 78
2020-10-25 08:00:00 11.4 5 Sur 11 Sur 0 -- -- 81
2020-10-25 07:00:00 11.3 4 Sur 10 Sur 0 -- -- 81
2020-10-25 06:00:00 10.3 5 Sur 10 Sur 0 -- -- 83
2020-10-25 05:00:00 10.5 5 Sur 10 Sur 0 -- -- 81
2020-10-25 04:00:00 10 4 Sur 9 Sur 0 -- -- 84
2020-10-25 03:00:00 10.2 4 Sur 10 Sur 0 -- -- 83
2020-10-25 02:00:00 11.3 5 Sur 12 Sur 0 -- -- 79
2020-10-25 01:00:00 10.7 5 Sur 10 Sur 0 -- -- 78
2020-10-25 00:00:00 11.1 5 Sur 10 Sudoeste 0 -- -- 76
2020-10-24 23:00:00 10.2 4 Sudoeste 6 Sudoeste 0 -- -- 78
2020-10-24 22:00:00 11.2 3 Sudoeste 14 Sur 0 -- -- 72
2020-10-24 21:00:00 13.2 7 Sur 13 Sudoeste 0 -- -- 64
2020-10-24 20:00:00 13.7 6 Sur 13 Noroeste 0 -- -- 61
2020-10-24 19:00:00 15.8 5 Oeste 14 Oeste 0 -- -- 54
2020-10-24 18:00:00 17.4 5 Oeste 18 Oeste 0 -- -- 52
2020-10-24 17:00:00 17.6 5 Oeste 19 Oeste 0 -- -- 53
2020-10-24 16:00:00 18.6 9 Oeste 16 Oeste 0 -- -- 51
2020-10-24 15:00:00 18.1 5 Noroeste 17 Sudoeste 0 -- -- 52
2020-10-24 14:00:00 16 6 Noroeste 13 Noroeste 0 -- -- 59
2020-10-24 13:00:00 15 4 Norte 9 Noroeste 0 -- -- 72
2020-10-24 12:00:00 13.5 3 Norte 8 Norte 0 -- -- 79
2020-10-24 11:00:00 13 4 Sudoeste 9 Sudoeste 0 -- -- 85
2020-10-24 10:00:00 9.6 0 Calma 2 Norte 0 -- -- 93
2020-10-24 09:00:00 8.3 0 Calma 12 Sudeste 0 -- -- 91
2020-10-24 08:00:00 9.2 5 Sudeste 10 Sudeste 0 -- -- 91
2020-10-24 07:00:00 9.3 2 Sur 7 Sur 0 -- -- 89
2020-10-24 06:00:00 9.7 4 Sur 6 Sudeste 0 -- -- 88
2020-10-24 05:00:00 9.6 0 Calma 10 Sudeste 0 -- -- 85
2020-10-24 04:00:00 10.3 6 Sudeste 10 Sudeste 0 -- -- 83
2020-10-24 03:00:00 10.4 4 Sur 11 Sudeste 0 -- -- 82
2020-10-24 02:00:00 10.2 3 Sur 8 Sudeste 0 -- -- 83
2020-10-24 01:00:00 11.1 6 Sudeste 9 Sudeste 0 -- -- 79
2020-10-24 00:00:00 12.1 2 Sur 8 Sur 0 -- -- 75
2020-10-23 23:00:00 13.1 4 Sur 9 Sur 0 -- -- 71
2020-10-23 22:00:00 12.6 3 Sur 7 Sur 0 -- -- 72
2020-10-23 21:00:00 13.1 4 Sur 7 Sudoeste 0 -- -- 69
2020-10-23 20:00:00 12.9 3 Sur 13 Sudoeste 0 -- -- 67
2020-10-23 19:00:00 15.3 5 Oeste 19 Sudoeste 0 -- -- 56
2020-10-23 18:00:00 16.7 10 Sudoeste 18 Sur 0 -- -- 53
2020-10-23 17:00:00 16.9 9 Sudoeste 26 Sudoeste 0 -- -- 52
2020-10-23 16:00:00 17.3 8 Oeste 22 Sudoeste 0 -- -- 54
2020-10-23 15:00:00 17 8 Oeste 20 Oeste 0 -- -- 56
2020-10-23 14:00:00 15.8 9 Oeste 23 Sudoeste 0 -- -- 65
2020-10-23 13:00:00 14 6 Sudoeste 14 Sudoeste 0 -- -- 79
2020-10-23 12:00:00 12.8 4 Sur 14 Oeste 0 -- -- 83
2020-10-23 11:00:00 13.6 5 Sudoeste 18 Sudoeste 0 -- -- 84
2020-10-23 10:00:00 12.1 5 Sudoeste 13 Sudoeste 0 -- -- 93
2020-10-23 09:00:00 11.5 3 Sudoeste 12 Sudoeste 0 -- -- 93
2020-10-23 08:00:00 11.6 4 Oeste 15 Sudoeste 0 -- -- 92
2020-10-23 07:00:00 11.5 6 Sudoeste 21 Oeste 1.2 -- -- 93
2020-10-23 06:00:00 12.3 7 Sudoeste 16 Oeste 1 -- -- 91
2020-10-23 05:00:00 12.6 6 Oeste 15 Oeste 0.2 -- -- 91
2020-10-23 04:00:00 12.6 4 Oeste 21 Oeste 0.2 -- -- 91
2020-10-23 03:00:00 13 9 Oeste 22 Oeste 0 -- -- 89
2020-10-23 02:00:00 13.4 7 Oeste 27 Oeste 0 -- -- 89
2020-10-23 01:00:00 13.7 6 Sudoeste 16 Oeste 0 -- -- 86
2020-10-23 00:00:00 13.5 6 Sur 13 Sur 0 -- -- 89
2020-10-22 23:00:00 14 6 Sur 17 Sur 0 -- -- 90
2020-10-22 22:00:00 12.9 0 Calma 5 Sudoeste 0 -- -- 93
2020-10-22 21:00:00 13.3 0 Calma 5 Sur 0 -- -- 92
2020-10-22 20:00:00 13.2 2 Sur 7 Este 0 -- -- 91
2020-10-22 19:00:00 14.2 3 Norte 8 Sudoeste 0 -- -- 90
2020-10-22 18:00:00 15 3 Sudoeste 10 Sur 0.2 -- -- 89
2020-10-22 17:00:00 15 5 Sudoeste 16 Sur 0.2 -- -- 89
2020-10-22 16:00:00 15.4 7 Sudoeste 15 Sudoeste 0 -- -- 89
2020-10-22 15:00:00 15 5 Sudoeste 12 Sudoeste 0.4 -- -- 91
2020-10-22 14:00:00 14.7 2 Sudoeste 9 Oeste 0.4 -- -- 91
2020-10-22 13:00:00 15 2 Sudoeste 6 Sur 0.2 -- -- 92
2020-10-22 12:00:00 13.8 0 Calma 6 Norte 0.4 -- -- 92
2020-10-22 11:00:00 13.6 2 Norte 16 Sur 0.2 -- -- 91
2020-10-22 10:00:00 12.9 4 Sur 18 Sudeste 1 -- -- 90
2020-10-22 09:00:00 13.1 7 Sur 16 Sur 1.6 -- -- 86
2020-10-22 08:00:00 12.6 4 Sur 5 Sur 0 -- -- 81
2020-10-22 07:00:00 12.7 2 Sur 3 Sur 0 -- -- 79
2020-10-22 06:00:00 13.2 0 Calma 8 Sur 0 -- -- 75
2020-10-22 05:00:00 14.7 3 Sur 8 Sur 0 -- -- 68
2020-10-22 04:00:00 15.5 3 Sudoeste 12 Sur 0 -- -- 66
2020-10-22 03:00:00 14.2 0 Calma 12 Sudeste 0 -- -- 75
2020-10-22 02:00:00 16 5 Sur 13 Sur 0 -- -- 66
2020-10-22 01:00:00 15.9 6 Sur 13 Sudoeste 0 -- -- 66
2020-10-22 00:00:00 14.7 3 Sur 5 Sur 0 -- -- 75
2020-10-21 23:00:00 14.4 3 Sur 5 Sur 0 -- -- 82
2020-10-21 22:00:00 14.9 3 Sur 5 Este 0 -- -- 83
2020-10-21 21:00:00 15.1 0 Calma 8 Sudeste 0 -- -- 79
2020-10-21 20:00:00 15.4 2 Sur 6 Sudeste 0 -- -- 77
2020-10-21 19:00:00 17.3 0 Calma 6 Noroeste 0 -- -- 69
2020-10-21 18:00:00 18.4 3 Noroeste 12 Sudoeste 0 -- -- 63
2020-10-21 17:00:00 19.2 5 Oeste 19 Noroeste 0 -- -- 60
2020-10-21 16:00:00 20 7 Oeste 18 Sudoeste 0 -- -- 54
2020-10-21 15:00:00 20.1 8 Sudoeste 21 Sudoeste 0 -- -- 55
2020-10-21 14:00:00 20.1 13 Sudoeste 27 Sur 0 -- -- 56
2020-10-21 13:00:00 19.1 12 Sudoeste 27 Sudoeste 0.2 -- -- 63
2020-10-21 12:00:00 17.8 13 Sudoeste 25 Sudoeste 0 -- -- 70
2020-10-21 11:00:00 16.7 11 Sudoeste 19 Sur 0 -- -- 73
2020-10-21 10:00:00 14.6 6 Sur 11 Sur 0 -- -- 85
2020-10-21 09:00:00 13.8 3 Sur 9 Sudeste 0 -- -- 94
2020-10-21 08:00:00 13.3 0 Calma 10 Sur 0 -- -- 94
2020-10-21 07:00:00 13.3 3 Sur 9 Sur 0 -- -- 93
2020-10-21 06:00:00 13.3 5 Sur 12 Sudoeste 0 -- -- 93
2020-10-21 05:00:00 14.5 9 Sudoeste 18 Sudoeste 0 -- -- 93
2020-10-21 04:00:00 15.2 7 Sudoeste 14 Sudoeste 2.2 -- -- 94
2020-10-21 03:00:00 15.1 5 Sur 20 Oeste 0.8 -- -- 92
2020-10-21 02:00:00 15.8 12 Oeste 36 Sur 0 -- -- 86
2020-10-21 01:00:00 21.4 16 Sudoeste 43 Sudoeste 0 -- -- 43
2020-10-21 00:00:00 22.5 24 Sudoeste 48 Sudoeste 0 -- -- 36
2020-10-20 23:00:00 22.2 6 Sudoeste 15 Sudoeste 0 -- -- 36
2020-10-20 22:00:00 23.9 6 Sudoeste 17 Sur 0 -- -- 30
2020-10-20 21:00:00 24.5 11 Sudoeste 31 Sudoeste 0 -- -- 29
2020-10-20 20:00:00 25.2 15 Sudoeste 39 Sur 0 -- -- 28
2020-10-20 19:00:00 26 19 Sudoeste 34 Sudoeste 0 -- -- 27
2020-10-20 18:00:00 26.1 11 Sudoeste 27 Sudoeste 0 -- -- 27
2020-10-20 17:00:00 27.2 9 Sudoeste 24 Sudoeste 0 -- -- 25
2020-10-20 16:00:00 27.3 12 Sudoeste 30 Sudoeste 0 -- -- 27
2020-10-20 15:00:00 28.5 17 Sudoeste 32 Sur 0 -- -- 25
2020-10-20 14:00:00 26.8 13 Sudoeste 25 Sudoeste 0 -- -- 28
2020-10-20 13:00:00 24.6 10 Sur 25 Sur 0 -- -- 31
2020-10-20 12:00:00 22.6 9 Sur 22 Sur 0 -- -- 33
2020-10-20 11:00:00 19.2 8 Sur 26 Sur 0 -- -- 39
2020-10-20 10:00:00 19 10 Sur 22 Sur 0 -- -- 37
2020-10-20 09:00:00 18.6 6 Sur 15 Sudeste 0 -- -- 37
2020-10-20 08:00:00 18.5 8 Sur 14 Sur 0 -- -- 37
2020-10-20 07:00:00 17.6 3 Nordeste 15 Sudeste 0 -- -- 42
2020-10-20 06:00:00 17 9 Sur 22 Sur 0 -- -- 43
2020-10-20 05:00:00 17 10 Sur 23 Sur 0 -- -- 43
2020-10-20 04:00:00 17.2 6 Sur 22 Sur 0 -- -- 43
2020-10-20 03:00:00 17.4 3 Sudoeste 16 Sur 0 -- -- 42
2020-10-20 02:00:00 18.6 8 Sur 20 Sudeste 0 -- -- 39
2020-10-20 01:00:00 20.1 8 Sur 15 Sur 0 -- -- 34
2020-10-20 00:00:00 19.3 7 Sur 12 Sur 0 -- -- 36
2020-10-19 23:00:00 20.3 6 Sur 15 Sur 0 -- -- 35
2020-10-19 22:00:00 21.1 8 Sur 18 Sur 0 -- -- 32
2020-10-19 21:00:00 22.1 8 Sur 14 Sur 0 -- -- 27
2020-10-19 20:00:00 22.3 8 Sudeste 13 Sudoeste 0 -- -- 27
2020-10-19 19:00:00 25.9 7 Sur 26 Sur 0 -- -- 23
2020-10-19 18:00:00 27.6 12 Sudoeste 25 Sudoeste 0 -- -- 21
2020-10-19 17:00:00 28.4 8 Sudoeste 19 Sur 0 -- -- 22
2020-10-19 16:00:00 28.8 11 Sudoeste 20 Sudoeste 0 -- -- 24
2020-10-19 15:00:00 26.7 3 Oeste 9 Norte 0 -- -- 26
2020-10-19 14:00:00 23.6 3 Noroeste 8 Noroeste 0 -- -- 32
2020-10-19 13:00:00 20.2 3 Norte 6 Noroeste 0 -- -- 37
2020-10-19 12:00:00 17 0 Calma 5 Noroeste 0 -- -- 42
2020-10-19 11:00:00 13.7 0 Calma 4 Noroeste 0 -- -- 49
2020-10-19 10:00:00 9.5 0 Calma 2 Sudoeste 0 -- -- 64
2020-10-19 09:00:00 7.6 0 Calma 4 Norte 0 -- -- 67
2020-10-19 08:00:00 7.6 0 Calma 5 Sudoeste 0 -- -- 65
2020-10-19 07:00:00 7.6 0 Calma 2 Este 0 -- -- 64
2020-10-19 06:00:00 8 0 Calma 4 Sur 0 -- -- 63
2020-10-19 05:00:00 8.6 0 Calma 3 Sur 0 -- -- 60
2020-10-19 04:00:00 9 0 Calma 6 Sur 0 -- -- 59
2020-10-19 03:00:00 9.8 4 Sur 5 Sudeste 0 -- -- 56
2020-10-19 02:00:00 11 0 Calma 4 Sudeste 0 -- -- 53
2020-10-19 01:00:00 12.5 3 Sudeste 7 Sur 0 -- -- 48
2020-10-19 00:00:00 13.1 0 Calma 5 Sudeste 0 -- -- 45
2020-10-18 23:00:00 14.5 0 Calma 14 Sur 0 -- -- 41
2020-10-18 22:00:00 16.4 3 Sudeste 11 Sudeste 0 -- -- 35
2020-10-18 21:00:00 15.3 3 Sur 5 Sur 0 -- -- 34
2020-10-18 20:00:00 16.8 0 Calma 4 Sudoeste 0 -- -- 35
2020-10-18 19:00:00 22.5 0 Calma 5 Sudoeste 0 -- -- 26
2020-10-18 18:00:00 23.7 3 Oeste 8 Noroeste 0 -- -- 24
2020-10-18 17:00:00 23.8 4 Noroeste 12 Noroeste 0 -- -- 25
2020-10-18 16:00:00 24.4 4 Noroeste 13 Sur 0 -- -- 26
2020-10-18 15:00:00 24.1 3 Sudoeste 10 Este 0 -- -- 27
2020-10-18 14:00:00 21.2 5 Norte 10 Noroeste 0 -- -- 31
2020-10-18 13:00:00 19.2 2 Noroeste 6 Norte 0 -- -- 35
2020-10-18 12:00:00 16.5 3 Noroeste 5 Noroeste 0 -- -- 38
2020-10-18 11:00:00 11.3 0 Calma 4 Norte 0 -- -- 55
2020-10-18 10:00:00 8.1 0 Calma 5 Sur 0 -- -- 63
2020-10-18 09:00:00 5.8 2 Sur 4 Sur 0 -- -- 69
2020-10-18 08:00:00 5.3 0 Calma 4 Sur 0 -- -- 70
2020-10-18 07:00:00 6.1 0 Calma 3 Sur 0 -- -- 66
2020-10-18 06:00:00 6.6 0 Calma 4 Sur 0 -- -- 65
2020-10-18 05:00:00 7.1 0 Calma 4 Sur 0 -- -- 62
2020-10-18 04:00:00 7.4 2 Sur 4 Sudoeste 0 -- -- 61
2020-10-18 03:00:00 7.9 0 Calma 5 Sur 0 -- -- 59
2020-10-18 02:00:00 9.2 0 Calma 3 Nordeste 0 -- -- 54
2020-10-18 01:00:00 9.5 0 Calma 2 Sudeste 0 -- -- 53
2020-10-18 00:00:00 10.1 0 Calma 5 Sur 0 -- -- 51
2020-10-17 23:00:00 11.3 0 Calma 5 Sudeste 0 -- -- 47
2020-10-17 22:00:00 13.6 5 Sudeste 11 Sudeste 0 -- -- 41
2020-10-17 21:00:00 14.3 5 Sur 9 Sudeste 0 -- -- 40
2020-10-17 20:00:00 15.2 4 Sur 6 Sur 0 -- -- 39
2020-10-17 19:00:00 18.7 2 Noroeste 7 Noroeste 0 -- -- 31
2020-10-17 18:00:00 19.8 3 Noroeste 12 Oeste 0 -- -- 30
2020-10-17 17:00:00 19.8 5 Oeste 13 Oeste 0 -- -- 30
2020-10-17 16:00:00 21.1 4 Oeste 17 Noroeste 0 -- -- 28
2020-10-17 15:00:00 19.8 7 Noroeste 16 Noroeste 0 -- -- 30
2020-10-17 14:00:00 18.7 7 Noroeste 14 Noroeste 0 -- -- 35
2020-10-17 13:00:00 17.2 4 Norte 8 Noroeste 0 -- -- 42
2020-10-17 12:00:00 15.2 4 Noroeste 7 Noroeste 0 -- -- 46
2020-10-17 11:00:00 11.2 2 Noroeste 4 Noroeste 0 -- -- 57
2020-10-17 10:00:00 6.6 0 Calma 3 Este 0 -- -- 66
2020-10-17 09:00:00 4.7 0 Calma 2 Norte 0 -- -- 71
2020-10-17 08:00:00 4.9 0 Calma 5 Sur 0 -- -- 69
2020-10-17 07:00:00 4.7 0 Calma 4 Sur 0 -- -- 69
2020-10-17 06:00:00 5.2 0 Calma 3 Sur 0 -- -- 66
2020-10-17 05:00:00 6.2 0 Calma 2 Sur 0 -- -- 62
2020-10-17 04:00:00 6.4 0 Calma 4 Sur 0 -- -- 61
2020-10-17 03:00:00 7.3 0 Calma 4 Sudoeste 0 -- -- 57
2020-10-17 02:00:00 8.8 0 Calma 4 Sur 0 -- -- 52
2020-10-17 01:00:00 9.3 2 Sur 4 Sudeste 0 -- -- 50
2020-10-17 00:00:00 10.1 0 Calma 11 Este 0 -- -- 48
2020-10-16 23:00:00 9.6 0 Calma 5 Este 0 -- -- 49
2020-10-16 22:00:00 10.4 0 Calma 5 Sur 0 -- -- 47
2020-10-16 21:00:00 12 2 Este 8 Sur 0 -- -- 43
2020-10-16 20:00:00 14.5 5 Sur 9 Sur 0 -- -- 37
2020-10-16 19:00:00 17.7 5 Sudoeste 14 Sudoeste 0 -- -- 31
2020-10-16 18:00:00 18.8 4 Noroeste 12 Norte 0 -- -- 31
2020-10-16 17:00:00 18.8 6 Norte 16 Norte 0 -- -- 31
2020-10-16 16:00:00 18.9 5 Noroeste 17 Oeste 0 -- -- 32
2020-10-16 15:00:00 19 6 Oeste 18 Noroeste 0 -- -- 32
2020-10-16 14:00:00 17.9 5 Noroeste 11 Norte 0 -- -- 34
2020-10-16 13:00:00 16.2 4 Norte 12 Noroeste 0 -- -- 36
2020-10-16 12:00:00 14.1 3 Norte 8 Noroeste 0 -- -- 45
2020-10-16 11:00:00 9.9 0 Calma 4 Oeste 0 -- -- 56
2020-10-16 10:00:00 6.3 0 Calma 4 Sur 0 -- -- 69
2020-10-16 09:00:00 4.4 0 Calma 4 Sur 0 -- -- 74
2020-10-16 08:00:00 5 2 Sur 5 Sur 0 -- -- 70
2020-10-16 07:00:00 5.6 0 Calma 5 Sur 0 -- -- 67
2020-10-16 06:00:00 6 2 Sur 8 Sur 0 -- -- 65
2020-10-16 05:00:00 7.1 4 Sur 8 Sur 0 -- -- 61
2020-10-16 04:00:00 7.5 4 Sur 7 Sur 0 -- -- 59
2020-10-16 03:00:00 7.6 3 Sur 5 Sur 0 -- -- 59
2020-10-16 02:00:00 8.4 3 Sur 6 Sur 0 -- -- 56
2020-10-16 01:00:00 9.9 0 Calma 7 Nordeste 0 -- -- 51
2020-10-16 00:00:00 9.6 0 Calma 6 Noroeste 0 -- -- 52
2020-10-15 23:00:00 11.7 5 Este 9 Este 0 -- -- 46
2020-10-15 22:00:00 12.2 3 Sudeste 10 Este 0 -- -- 44
2020-10-15 21:00:00 12.9 4 Nordeste 9 Nordeste 0 -- -- 43
2020-10-15 20:00:00 13.7 3 Nordeste 8 Este 0 -- -- 41
2020-10-15 19:00:00 16.5 3 Nordeste 14 Nordeste 0 -- -- 36
2020-10-15 18:00:00 18.7 5 Este 21 Norte 0 -- -- 32
2020-10-15 17:00:00 18.3 5 Noroeste 15 Norte 0 -- -- 32
2020-10-15 16:00:00 20.2 5 Sudeste 23 Noroeste 0 -- -- 32
2020-10-15 15:00:00 18.6 4 Nordeste 13 Nordeste 0 -- -- 34
2020-10-15 14:00:00 17.4 5 Norte 15 Norte 0 -- -- 35
2020-10-15 13:00:00 15.4 5 Noroeste 14 Nordeste 0 -- -- 41
2020-10-15 12:00:00 13.8 4 Noroeste 9 Noroeste 0 -- -- 45
2020-10-15 11:00:00 10.8 0 Calma 5 Noroeste 0 -- -- 54
2020-10-15 10:00:00 7.6 0 Calma 6 Sur 0 -- -- 64
2020-10-15 09:00:00 4.6 0 Calma 5 Sur 0 -- -- 73
2020-10-15 08:00:00 4.8 0 Calma 4 Sur 0 -- -- 71
2020-10-15 07:00:00 5.7 3 Sur 8 Sur 0 -- -- 68
2020-10-15 06:00:00 5.4 0 Calma 4 Sur 0 -- -- 69
2020-10-15 05:00:00 6.7 0 Calma 5 Sur 0 -- -- 62
2020-10-15 04:00:00 6.8 0 Calma 4 Sur 0 -- -- 62
2020-10-15 03:00:00 8.3 0 Calma 3 Norte 0 -- -- 58
2020-10-15 02:00:00 10 0 Calma 5 Este 0 -- -- 52
2020-10-15 01:00:00 11 3 Sudeste 10 Este 0 -- -- 48
2020-10-15 00:00:00 11.2 5 Este 9 Este 0 -- -- 46
2020-10-14 23:00:00 10.9 3 Este 8 Este 0 -- -- 47
2020-10-14 22:00:00 10.5 0 Calma 7 Nordeste 0 -- -- 49
2020-10-14 21:00:00 11.7 2 Sur 6 Nordeste 0 -- -- 46
2020-10-14 20:00:00 13.7 0 Calma 13 Norte 0 -- -- 42
2020-10-14 19:00:00 17.7 9 Norte 23 Norte 0 -- -- 34
2020-10-14 18:00:00 18.5 13 Noroeste 25 Norte 0 -- -- 34
2020-10-14 17:00:00 18.4 10 Norte 21 Noroeste 0 -- -- 38
2020-10-14 16:00:00 18.9 6 Noroeste 17 Norte 0 -- -- 41
2020-10-14 15:00:00 17.3 6 Oeste 15 Sudoeste 0 -- -- 50
2020-10-14 14:00:00 18.2 6 Sudoeste 14 Sudoeste 0 -- -- 49
2020-10-14 13:00:00 17 3 Sudoeste 8 Oeste 0 -- -- 54
2020-10-14 12:00:00 14.6 4 Oeste 13 Noroeste 0 -- -- 64
2020-10-14 11:00:00 14 8 Sudoeste 15 Sudoeste 0 -- -- 60
2020-10-14 10:00:00 12.9 3 Norte 14 Sudeste 0 -- -- 59
2020-10-14 09:00:00 11.2 3 Sur 19 Oeste 0 -- -- 60
2020-10-14 08:00:00 13.4 10 Sudoeste 30 Sudoeste 0 -- -- 55
2020-10-14 07:00:00 12 2 Nordeste 11 Sudoeste 0 -- -- 56
2020-10-14 06:00:00 13.5 0 Calma 17 Sur 0 -- -- 50
2020-10-14 05:00:00 14.5 6 Sur 16 Sur 0 -- -- 49
2020-10-14 04:00:00 15.2 7 Sur 21 Sudoeste 0 -- -- 47
2020-10-14 03:00:00 16 9 Sur 28 Sur 0 -- -- 46
2020-10-14 02:00:00 17.6 13 Sudoeste 29 Sudoeste 0 -- -- 43
2020-10-14 01:00:00 17.6 12 Sur 26 Sudoeste 0 -- -- 43
2020-10-14 00:00:00 18.4 7 Sudoeste 19 Sudoeste 0 -- -- 40
2020-10-13 23:00:00 18.7 6 Sudoeste 16 Sur 0 -- -- 39
2020-10-13 22:00:00 19.2 8 Sudoeste 16 Sudoeste 0 -- -- 38
2020-10-13 21:00:00 18.7 6 Sur 11 Sur 0 -- -- 42
2020-10-13 20:00:00 19.3 6 Sur 10 Sudoeste 0 -- -- 42
2020-10-13 19:00:00 22.4 5 Oeste 14 Sudoeste 0 -- -- 35
2020-10-13 18:00:00 23.2 5 Oeste 15 Oeste 0 -- -- 34
2020-10-13 17:00:00 23.1 5 Noroeste 13 Sudoeste 0 -- -- 34
2020-10-13 16:00:00 23.8 3 Sudoeste 13 Noroeste 0 -- -- 34
2020-10-13 15:00:00 22.2 6 Noroeste 14 Noroeste 0 -- -- 37
2020-10-13 14:00:00 21.3 5 Noroeste 13 Norte 0 -- -- 35
2020-10-13 13:00:00 18.9 5 Noroeste 11 Norte 0 -- -- 36
2020-10-13 12:00:00 16.5 3 Norte 8 Noroeste 0 -- -- 45
2020-10-13 11:00:00 13 0 Calma 6 Norte 0 -- -- 55
2020-10-13 10:00:00 8.9 0 Calma 4 Sur 0 -- -- 67
2020-10-13 09:00:00 6.9 0 Calma 7 Sur 0 -- -- 70
2020-10-13 08:00:00 7.6 5 Sur 9 Sur 0 -- -- 66
2020-10-13 07:00:00 7 0 Calma 6 Sur 0 -- -- 67
2020-10-13 06:00:00 7.2 3 Sur 6 Sur 0 -- -- 66
2020-10-13 05:00:00 7.8 4 Sur 8 Sur 0 -- -- 64
2020-10-13 04:00:00 7.5 0 Calma 6 Sur 0 -- -- 64
2020-10-13 03:00:00 8.1 2 Sur 5 Sur 0 -- -- 62
2020-10-13 02:00:00 8.8 0 Calma 4 Sur 0 -- -- 59
2020-10-13 01:00:00 -- -- -- -- -- -- -- -- --
2020-10-13 00:00:00 11.5 3 Nordeste 9 Este 0 -- -- 49
2020-10-12 23:00:00 12.1 3 Este 8 Este 0 -- -- 47
2020-10-12 22:00:00 12.1 3 Este 11 Nordeste 0 -- -- 47
2020-10-12 21:00:00 13.2 3 Nordeste 9 Este 0 -- -- 43
2020-10-12 20:00:00 15.1 3 Nordeste 12 Noroeste 0 -- -- 38
2020-10-12 19:00:00 19.3 5 Norte 12 Noroeste 0 -- -- 30
2020-10-12 18:00:00 -- -- -- -- -- -- -- -- --
2020-10-12 17:00:00 19.3 6 Norte 15 Noroeste 0 -- -- 28
2020-10-12 16:00:00 19.5 7 Norte 24 Norte 0 -- -- 27
2020-10-12 15:00:00 19.1 9 Nordeste 20 Norte 0 -- -- 28
2020-10-12 14:00:00 16.8 8 Noroeste 17 Norte 0 -- -- 36
2020-10-12 13:00:00 14.9 6 Norte 15 Norte 0 -- -- 43
2020-10-12 12:00:00 13 8 Norte 19 Noroeste 0 -- -- 49
2020-10-12 11:00:00 11.1 8 Norte 22 Norte 0 -- -- 56
2020-10-12 10:00:00 8.1 7 Nordeste 15 Norte 0 -- -- 67
2020-10-12 09:00:00 6.2 3 Nordeste 19 Norte 0 -- -- 69
2020-10-12 08:00:00 7.1 7 Norte 15 Norte 0 -- -- 66
2020-10-12 07:00:00 7.3 0 Calma 13 Nordeste 0 -- -- 63
2020-10-12 06:00:00 7.3 4 Norte 11 Norte 0 -- -- 62
2020-10-12 05:00:00 9 8 Norte 16 Norte 0 -- -- 55
2020-10-12 04:00:00 -- -- -- -- -- -- -- -- --
2020-10-12 03:00:00 9.2 7 Nordeste 14 Nordeste 0 -- -- 53
2020-10-12 02:00:00 9.7 0 Calma 5 Nordeste 0 -- -- 49
2020-10-12 01:00:00 12.1 3 Nordeste 17 Este 0 -- -- 41
2020-10-12 00:00:00 13.7 5 Nordeste 19 Este 0 -- -- 37
2020-10-11 23:00:00 13.2 3 Nordeste 15 Norte 0 -- -- 37
2020-10-11 22:00:00 13 0 Calma 10 Este 0 -- -- 38
2020-10-11 21:00:00 -- -- -- -- -- -- -- -- --
2020-10-11 20:00:00 -- -- -- -- -- -- -- -- --
2020-10-11 19:00:00 20.5 8 Norte 23 Norte 0 -- -- 23
2020-10-11 18:00:00 21.9 12 Norte 26 Noroeste 0 -- -- 23
2020-10-11 17:00:00 22.5 13 Norte 22 Norte 0 -- -- 20
2020-10-11 16:00:00 23.2 12 Noroeste 26 Norte 0 -- -- 24
2020-10-11 15:00:00 23.6 8 Norte 20 Norte 0 -- -- 22
2020-10-11 14:00:00 22.2 10 Norte 22 Nordeste 0 -- -- 32
2020-10-11 13:00:00 20.5 10 Norte 20 Norte 0 -- -- 41
2020-10-11 12:00:00 18.8 12 Nordeste 23 Nordeste 0 -- -- 60
2020-10-11 11:00:00 16.8 6 Nordeste 17 Norte 0 -- -- 73
2020-10-11 10:00:00 13.2 0 Calma 10 Noroeste 0 -- -- 92
2020-10-11 09:00:00 12.1 0 Calma 3 Sur 0 -- -- 92
2020-10-11 08:00:00 11.7 0 Calma 4 Sur 0 -- -- 90
2020-10-11 07:00:00 12.1 0 Calma 2 Noroeste 0 -- -- 88
2020-10-11 06:00:00 13.4 0 Calma 5 Este 0 -- -- 84
2020-10-11 05:00:00 13.6 2 Sudoeste 6 Sur 0 -- -- 69
2020-10-11 04:00:00 15.1 2 Sudoeste 13 Sudeste 0 -- -- 61
2020-10-11 03:00:00 18 8 Sur 13 Sur 0 -- -- 52
2020-10-11 02:00:00 16.8 3 Sur 8 Sur 0 -- -- 53
2020-10-11 01:00:00 17.9 3 Nordeste 10 Sur 0 -- -- 50
2020-10-11 00:00:00 20.8 6 Sur 14 Sur 0 -- -- 41
2020-10-10 23:00:00 21 4 Sur 14 Sur 0 -- -- 43
2020-10-10 22:00:00 22 5 Sudeste 10 Sur 0 -- -- 41
2020-10-10 21:00:00 23.3 5 Sur 10 Sudeste 0 -- -- 37
2020-10-10 20:00:00 24.2 6 Sur 9 Sudoeste 0 -- -- 36
2020-10-10 19:00:00 27.8 5 Sudoeste 14 Sudoeste 0 -- -- 31
2020-10-10 18:00:00 28.2 5 Sudoeste 12 Noroeste 0 -- -- 29
2020-10-10 17:00:00 28 6 Noroeste 15 Norte 0 -- -- 31
2020-10-10 16:00:00 28.6 6 Noroeste 15 Oeste 0 -- -- 31
2020-10-10 15:00:00 27.8 8 Noroeste 14 Oeste 0 -- -- 33
2020-10-10 14:00:00 26.7 7 Noroeste 14 Sudoeste 0 -- -- 38
2020-10-10 13:00:00 26.5 6 Sur 14 Sur 0 -- -- 38
2020-10-10 12:00:00 22.4 4 Noroeste 8 Noroeste 0 -- -- 47
2020-10-10 11:00:00 18.2 2 Norte 6 Norte 0 -- -- 57
2020-10-10 10:00:00 14.7 0 Calma 2 Norte 0 -- -- 67
2020-10-10 09:00:00 13.7 0 Calma 5 Noroeste 0 -- -- 67
2020-10-10 08:00:00 12.5 0 Calma 2 Sudeste 0 -- -- 71
2020-10-10 07:00:00 12.9 0 Calma 4 Sur 0 -- -- 69
2020-10-10 06:00:00 13.3 0 Calma 6 Sur 0 -- -- 67
2020-10-10 05:00:00 14.1 0 Calma 4 Sur 0 -- -- 63
2020-10-10 04:00:00 15.6 0 Calma 3 Este 0 -- -- 58
2020-10-10 03:00:00 17 0 Calma 12 Sudeste 0 -- -- 53
2020-10-10 02:00:00 19 6 Sudeste 14 Sudeste 0 -- -- 47
2020-10-10 01:00:00 19.8 9 Sudeste 12 Sudeste 0 -- -- 46
2020-10-10 00:00:00 17.7 0 Calma 4 Sur 0 -- -- 51
2020-10-09 23:00:00 19.2 3 Sur 11 Sudeste 0 -- -- 47
2020-10-09 22:00:00 20.3 5 Sur 8 Sur 0 -- -- 42
2020-10-09 21:00:00 20.9 0 Calma 9 Sur 0 -- -- 42
2020-10-09 20:00:00 23.3 4 Sur 7 Sudeste 0 -- -- 37
2020-10-09 19:00:00 26.1 3 Sudoeste 8 Oeste 0 -- -- 33
2020-10-09 18:00:00 27.8 3 Sudoeste 9 Noroeste 0 -- -- 27
2020-10-09 17:00:00 28 4 Oeste 10 Oeste 0 -- -- 28
2020-10-09 16:00:00 29 4 Norte 10 Noroeste 0 -- -- 30
2020-10-09 15:00:00 27.6 5 Norte 10 Noroeste 0 -- -- 31
2020-10-09 14:00:00 26.1 3 Noroeste 10 Norte 0 -- -- 38
2020-10-09 13:00:00 24.7 3 Nordeste 8 Noroeste 0 -- -- 42
2020-10-09 12:00:00 22.3 3 Norte 8 Norte 0 -- -- 46
2020-10-09 11:00:00 18.4 2 Noroeste 5 Noroeste 0 -- -- 59
2020-10-09 10:00:00 14 0 Calma 3 Norte 0 -- -- 72
2020-10-09 09:00:00 14 3 Norte 9 Sudeste 0 -- -- 70
2020-10-09 08:00:00 15.4 4 Sur 9 Sur 0 -- -- 65
2020-10-09 07:00:00 14.3 5 Sur 8 Sur 0 -- -- 71
2020-10-09 06:00:00 13.7 0 Calma 5 Sur 0 -- -- 71
2020-10-09 05:00:00 13.9 0 Calma 9 Este 0 -- -- 68
2020-10-09 04:00:00 15.5 2 Sur 9 Sudeste 0 -- -- 58
2020-10-09 03:00:00 16.7 3 Sur 12 Sudeste 0 -- -- 53
2020-10-09 02:00:00 17.3 5 Sur 13 Sur 0 -- -- 50
2020-10-09 01:00:00 18.4 5 Sudoeste 10 Sur 0 -- -- 48
2020-10-09 00:00:00 18.6 2 Sudeste 13 Sudeste 0 -- -- 46
2020-10-08 23:00:00 21.4 8 Sudeste 15 Sudeste 0 -- -- 38
2020-10-08 22:00:00 22.2 7 Sur 9 Sur 0 -- -- 36
2020-10-08 21:00:00 22.1 5 Sur 6 Sur 0 -- -- 36
2020-10-08 20:00:00 23.6 4 Sur 7 Sur 0 -- -- 34
2020-10-08 19:00:00 28.3 3 Oeste 11 Noroeste 0 -- -- 27
2020-10-08 18:00:00 28.4 4 Noroeste 13 Norte 0 -- -- 25
2020-10-08 17:00:00 28.4 5 Noroeste 21 Noroeste 0 -- -- 26
2020-10-08 16:00:00 28.9 6 Noroeste 15 Noroeste 0 -- -- 28
2020-10-08 15:00:00 28.3 3 Oeste 12 Noroeste 0 -- -- 31
2020-10-08 14:00:00 26.6 3 Sudoeste 11 Oeste 0 -- -- 36
2020-10-08 13:00:00 24.1 3 Noroeste 8 Oeste 0 -- -- 42
2020-10-08 12:00:00 21.9 2 Norte 5 Norte 0 -- -- 45
2020-10-08 11:00:00 18.9 3 Noroeste 5 Noroeste 0 -- -- 52
2020-10-08 10:00:00 13.9 0 Calma 3 Sur 0 -- -- 69
2020-10-08 09:00:00 11.8 0 Calma 4 Sur 0 -- -- 75
2020-10-08 08:00:00 11.6 0 Calma 2 Sudeste 0 -- -- 73
2020-10-08 07:00:00 11.9 0 Calma 3 Sur 0 -- -- 72
2020-10-08 06:00:00 12.5 2 Sur 5 Sudoeste 0 -- -- 69
2020-10-08 05:00:00 13.3 0 Calma 5 Sur 0 -- -- 65
2020-10-08 04:00:00 14.1 0 Calma 2 Sur 0 -- -- 62
2020-10-08 03:00:00 14.5 0 Calma 5 Sur 0 -- -- 60
2020-10-08 02:00:00 16.4 4 Sur 8 Sur 0 -- -- 54
2020-10-08 01:00:00 16.3 0 Calma 6 Sur 0 -- -- 54
2020-10-08 00:00:00 17.1 2 Sur 8 Sudeste 0 -- -- 50
2020-10-07 23:00:00 17.2 0 Calma 4 Sur 0 -- -- 50
2020-10-07 22:00:00 19.4 3 Sur 11 Norte 0 -- -- 37
2020-10-07 21:00:00 20.8 0 Calma 9 Sur 0 -- -- 34
2020-10-07 20:00:00 22.8 3 Sur 6 Sur 0 -- -- 34
2020-10-07 19:00:00 28.6 2 Noroeste 9 Noroeste 0 -- -- 23
2020-10-07 18:00:00 28.1 4 Oeste 14 Noroeste 0 -- -- 25
2020-10-07 17:00:00 28.2 5 Norte 12 Norte 0 -- -- 26
2020-10-07 16:00:00 28.2 7 Noroeste 13 Noroeste 0 -- -- 29
2020-10-07 15:00:00 27 8 Noroeste 15 Noroeste 0 -- -- 30
2020-10-07 14:00:00 25.6 8 Norte 17 Noroeste 0 -- -- 39
2020-10-07 13:00:00 23.8 5 Noroeste 9 Noroeste 0 -- -- 47
2020-10-07 12:00:00 21.3 4 Noroeste 8 Noroeste 0 -- -- 52
2020-10-07 11:00:00 18 0 Calma 4 Nordeste 0 -- -- 62
2020-10-07 10:00:00 12.9 0 Calma 6 Sur 0 -- -- 78
2020-10-07 09:00:00 10.5 3 Sur 5 Sur 0 -- -- 85
2020-10-07 08:00:00 10.4 0 Calma 6 Sur 0 -- -- 83
2020-10-07 07:00:00 11.1 2 Este 6 Norte 0 -- -- 80
2020-10-07 06:00:00 11.1 0 Calma 2 Sur 0 -- -- 79
2020-10-07 05:00:00 12 0 Calma 5 Sur 0 -- -- 74
2020-10-07 04:00:00 12.5 0 Calma 8 Sur 0 -- -- 72
2020-10-07 03:00:00 13.7 0 Calma 10 Sudeste 0 -- -- 67
2020-10-07 02:00:00 14.5 3 Sur 6 Sur 0 -- -- 64
2020-10-07 01:00:00 14.6 0 Calma 5 Sur 0 -- -- 64
2020-10-07 00:00:00 15.2 0 Calma 3 Sudeste 0 -- -- 61
2020-10-06 23:00:00 15.9 0 Calma 7 Sur 0 -- -- 58
2020-10-06 22:00:00 17 4 Sur 6 Sur 0 -- -- 55
2020-10-06 21:00:00 17.1 0 Calma 3 Sur 0 -- -- 56
2020-10-06 20:00:00 20.3 0 Calma 8 Oeste 0 -- -- 48
2020-10-06 19:00:00 24.3 4 Noroeste 9 Oeste 0 -- -- 37
2020-10-06 18:00:00 25.1 5 Norte 13 Norte 0 -- -- 35
2020-10-06 17:00:00 24.9 4 Sudeste 17 Norte 0 -- -- 35
2020-10-06 16:00:00 24.5 8 Norte 18 Noroeste 0 -- -- 36
2020-10-06 15:00:00 23.4 6 Norte 16 Norte 0 -- -- 35
2020-10-06 14:00:00 21.7 7 Noroeste 13 Norte 0 -- -- 38
2020-10-06 13:00:00 20.4 3 Este 9 Noroeste 0 -- -- 44
2020-10-06 12:00:00 17.6 3 Noroeste 8 Norte 0 -- -- 53
2020-10-06 11:00:00 14.4 2 Norte 4 Noroeste 0 -- -- 66
2020-10-06 10:00:00 10.4 3 Norte 5 Norte 0 -- -- 82
2020-10-06 09:00:00 8.6 2 Sur 5 Sur 0 -- -- 86
2020-10-06 08:00:00 7.9 2 Sur 5 Sur 0 -- -- 86
2020-10-06 07:00:00 8.4 3 Sur 6 Norte 0 -- -- 84
2020-10-06 06:00:00 8.4 0 Calma 3 Sudeste 0 -- -- 84
2020-10-06 05:00:00 8.7 0 Calma 3 Sur 0 -- -- 82
2020-10-06 04:00:00 8.9 0 Calma 5 Sur 0 -- -- 81
2020-10-06 03:00:00 9.4 0 Calma 4 Nordeste 0 -- -- 78
2020-10-06 02:00:00 10.1 0 Calma 6 Sur 0 -- -- 74
2020-10-06 01:00:00 11.3 0 Calma 11 Sudeste 0 -- -- 69
2020-10-06 00:00:00 11.8 4 Sudeste 9 Este 0 -- -- 68
2020-10-05 23:00:00 13.4 5 Sur 9 Sur 0 -- -- 62
2020-10-05 22:00:00 13.9 4 Sur 7 Sur 0 -- -- 60
2020-10-05 21:00:00 13.7 3 Sur 6 Sur 0 -- -- 59
2020-10-05 20:00:00 16.1 4 Sur 7 Oeste 0 -- -- 54
2020-10-05 19:00:00 19 5 Oeste 11 Sudoeste 0 -- -- 43
2020-10-05 18:00:00 19 4 Oeste 13 Oeste 0 -- -- 42
2020-10-05 17:00:00 19.3 3 Sudoeste 15 Oeste 0 -- -- 42
2020-10-05 16:00:00 20.5 6 Sur 16 Noroeste 0 -- -- 42
2020-10-05 15:00:00 18.6 5 Oeste 17 Oeste 0 -- -- 42
2020-10-05 14:00:00 18.3 5 Norte 13 Oeste 0 -- -- 51
2020-10-05 13:00:00 16.4 5 Noroeste 13 Oeste 0 -- -- 56
2020-10-05 12:00:00 14.7 5 Norte 11 Noroeste 0 -- -- 60
2020-10-05 11:00:00 14.7 4 Sur 13 Sur 0 -- -- 64
2020-10-05 10:00:00 11.5 5 Sur 16 Sudoeste 0 -- -- 81
2020-10-05 09:00:00 10.1 4 Sur 12 Sudoeste 0 -- -- 88
2020-10-05 08:00:00 10.2 4 Sur 10 Sur 0 -- -- 87
2020-10-05 07:00:00 10.9 4 Sur 12 Sur 0 -- -- 83
2020-10-05 06:00:00 11.9 6 Sur 12 Sudeste 0 -- -- 81
2020-10-05 05:00:00 12.2 3 Sudeste 10 Sudeste 0 -- -- 80
2020-10-05 04:00:00 12.2 3 Sur 14 Sur 0 -- -- 79
2020-10-05 03:00:00 13.1 6 Sur 12 Sur 0 -- -- 75
2020-10-05 02:00:00 13.8 5 Sur 14 Sudoeste 0 -- -- 71
2020-10-05 01:00:00 13.6 5 Sur 8 Sur 0 -- -- 70
2020-10-05 00:00:00 14 4 Sur 10 Sudoeste 0 -- -- 68
2020-10-04 23:00:00 14.5 6 Sudoeste 13 Sudoeste 0 -- -- 69
2020-10-04 22:00:00 15.7 3 Sudoeste 20 Sudoeste 0 -- -- 63
2020-10-04 21:00:00 15 4 Sudoeste 12 Sur 0 -- -- 65
2020-10-04 20:00:00 16.3 6 Sur 21 Sudoeste 0 -- -- 60
2020-10-04 19:00:00 16.8 11 Sudoeste 23 Sudoeste 0 -- -- 58
2020-10-04 18:00:00 17.3 8 Sudoeste 25 Noroeste 0 -- -- 55
2020-10-04 17:00:00 17.3 9 Sudoeste 22 Oeste 0 -- -- 51
2020-10-04 16:00:00 17.8 8 Sudoeste 23 Sur 0 -- -- 51
2020-10-04 15:00:00 17.8 10 Sudoeste 28 Sudoeste 0 -- -- 49
2020-10-04 14:00:00 17.7 14 Sudoeste 28 Sudoeste 0 -- -- 50
2020-10-04 13:00:00 16.5 12 Sudoeste 23 Sudoeste 0 -- -- 53
2020-10-04 12:00:00 15.2 10 Sur 19 Sudoeste 0 -- -- 57
2020-10-04 11:00:00 13 9 Sudoeste 17 Sudoeste 0 -- -- 63
2020-10-04 10:00:00 10.7 8 Sudoeste 16 Sur 0 -- -- 68
2020-10-04 09:00:00 9.3 6 Sur 15 Sur 0 -- -- 70
2020-10-04 08:00:00 9 6 Sur 14 Sur 0 -- -- 71
2020-10-04 07:00:00 8.5 5 Sur 14 Sudoeste 0 -- -- 72
2020-10-04 06:00:00 9.5 6 Sur 15 Sur 0 -- -- 67
2020-10-04 05:00:00 9.6 5 Sur 15 Sur 0 -- -- 68
2020-10-04 04:00:00 10.5 7 Sur 18 Sur 0 -- -- 63
2020-10-04 03:00:00 11.1 9 Sur 17 Sur 0 -- -- 62
2020-10-04 02:00:00 11.6 7 Sur 15 Sur 0 -- -- 59
2020-10-04 01:00:00 10.8 4 Sur 13 Sur 0 -- -- 63
2020-10-04 00:00:00 10.7 4 Sur 12 Sur 0 -- -- 65
2020-10-03 23:00:00 11 6 Sur 14 Sur 0 -- -- 65
2020-10-03 22:00:00 11.2 4 Sur 12 Sudoeste 0 -- -- 66
2020-10-03 21:00:00 11.4 5 Sur 12 Sur 0 -- -- 68
2020-10-03 20:00:00 12.7 5 Sur 16 Sudoeste 0 -- -- 63
2020-10-03 19:00:00 14.7 10 Sudoeste 17 Sudoeste 0 -- -- 54
2020-10-03 18:00:00 14.9 6 Sudoeste 17 Oeste 0 -- -- 52
2020-10-03 17:00:00 14.5 9 Oeste 23 Sudoeste 0 -- -- 50
2020-10-03 16:00:00 16.5 8 Sudoeste 22 Sudoeste 0 -- -- 50
2020-10-03 15:00:00 14.9 12 Sudoeste 24 Sudoeste 0 -- -- 58
2020-10-03 14:00:00 14.5 14 Sudoeste 24 Sudoeste 0 -- -- 59
2020-10-03 13:00:00 12.1 12 Sudoeste 21 Sudoeste 0 -- -- 66
2020-10-03 12:00:00 10.5 8 Sudoeste 21 Sudoeste 0 -- -- 72
2020-10-03 11:00:00 9.7 8 Sudoeste 19 Sudoeste 0 -- -- 77
2020-10-03 10:00:00 8.5 8 Sudoeste 18 Sudoeste 0 -- -- 82
2020-10-03 09:00:00 7.6 8 Sudoeste 19 Sudoeste 0 -- -- 84
2020-10-03 08:00:00 7.4 8 Sudoeste 18 Sur 0 -- -- 84
2020-10-03 07:00:00 7.3 8 Sudoeste 19 Sudoeste 0 -- -- 87
2020-10-03 06:00:00 7.5 7 Sur 19 Sudoeste 0 -- -- 86
2020-10-03 05:00:00 8 9 Sudoeste 19 Sudoeste 0 -- -- 82
2020-10-03 04:00:00 8.6 10 Sudoeste 27 Sudoeste 0 -- -- 80
2020-10-03 03:00:00 8.8 8 Sudoeste 27 Sudoeste 0 -- -- 82
2020-10-03 02:00:00 9.5 8 Sudoeste 19 Sudoeste 0 -- -- 78
2020-10-03 01:00:00 10.1 9 Sudoeste 19 Sudoeste 0 -- -- 77
2020-10-03 00:00:00 10.4 6 Sudoeste 23 Sudoeste 0 -- -- 82
2020-10-02 23:00:00 10.8 11 Sur 23 Sudoeste 0 -- -- 86
2020-10-02 22:00:00 11.4 8 Sudoeste 23 Sur 0 -- -- 80
2020-10-02 21:00:00 11.1 6 Sudoeste 20 Sudoeste 0 -- -- 84
2020-10-02 20:00:00 10.9 6 Sudoeste 21 Nordeste 0 -- -- 91
2020-10-02 19:00:00 10.7 5 Norte 37 Noroeste 0.4 -- -- 92
2020-10-02 18:00:00 13 6 Oeste 31 Oeste 1.8 -- -- 93
2020-10-02 17:00:00 13.7 17 Noroeste 50 Sudoeste 8.8 -- -- 92
2020-10-02 16:00:00 15.8 22 Sudoeste 59 Sudoeste 0 -- -- 87
2020-10-02 15:00:00 18 30 Sudoeste 53 Sur 0 -- -- 70
2020-10-02 14:00:00 17.6 28 Sudoeste 58 Sur 0 -- -- 70
2020-10-02 13:00:00 16.8 22 Sudoeste 51 Sudoeste 0 -- -- 72
2020-10-02 12:00:00 15 20 Sudoeste 40 Sudoeste 0 -- -- 76
2020-10-02 11:00:00 14.7 19 Sudoeste 37 Sur 0 -- -- 72
2020-10-02 10:00:00 14.5 14 Sudoeste 32 Sudoeste 0 -- -- 72
2020-10-02 09:00:00 14 14 Sudoeste 36 Sudoeste 0 -- -- 75
2020-10-02 08:00:00 14.1 15 Sur 31 Sur 0 -- -- 74
2020-10-02 07:00:00 14.3 15 Sudoeste 34 Sudoeste 0 -- -- 74
2020-10-02 06:00:00 14.8 13 Sudoeste 36 Sur 0 -- -- 74
2020-10-02 05:00:00 15.3 16 Sudoeste 30 Sudoeste 0 -- -- 72
2020-10-02 04:00:00 16.2 12 Sudoeste 28 Sur 0 -- -- 69
2020-10-02 03:00:00 17.4 10 Sudoeste 27 Sudoeste 0 -- -- 67
2020-10-02 02:00:00 17.2 8 Sur 21 Sudoeste 0 -- -- 60
2020-10-02 01:00:00 18.2 10 Sur 23 Sudoeste 0 -- -- 55
2020-10-02 00:00:00 18.8 11 Sur 26 Sudoeste 0 -- -- 53
2020-10-01 23:00:00 20 13 Sudoeste 36 Sudoeste 0 -- -- 47
2020-10-01 22:00:00 20.4 13 Sudoeste 33 Sur 0 -- -- 45
2020-10-01 21:00:00 20.6 13 Sudoeste 30 Sur 0 -- -- 44
2020-10-01 20:00:00 21.5 8 Sudoeste 25 Sudoeste 0 -- -- 42
2020-10-01 19:00:00 24.5 8 Sudoeste 23 Sudoeste 0 -- -- 36
2020-10-01 18:00:00 25 9 Sudoeste 24 Sudoeste 0 -- -- 31
2020-10-01 17:00:00 25 11 Sudoeste 28 Oeste 0 -- -- 29
2020-10-01 16:00:00 24.9 12 Sudoeste 24 Noroeste 0 -- -- 33
2020-10-01 15:00:00 24.2 10 Oeste 24 Sudoeste 0 -- -- 39
2020-10-01 14:00:00 23.3 11 Oeste 29 Noroeste 0 -- -- 39
2020-10-01 13:00:00 23.2 8 Sudoeste 19 Sudoeste 0 -- -- 48
2020-10-01 12:00:00 21.2 8 Sudoeste 18 Sudoeste 0 -- -- 57
2020-10-01 11:00:00 19.4 10 Sur 16 Sur 0 -- -- 63
2020-10-01 10:00:00 16.2 7 Sur 14 Sudoeste 0 -- -- 71
2020-10-01 09:00:00 15.3 5 Sur 10 Sudoeste 0 -- -- 74
2020-10-01 08:00:00 15.3 6 Sur 11 Sur 0 -- -- 75
2020-10-01 07:00:00 13.9 2 Sur 5 Sur 0 -- -- 77
2020-10-01 06:00:00 14.7 0 Calma 8 Sur 0 -- -- 75
2020-10-01 05:00:00 16.8 5 Sur 13 Sudeste 0 -- -- 65
2020-10-01 04:00:00 17.8 6 Sur 13 Sur 0 -- -- 55
2020-10-01 03:00:00 17.2 5 Sur 11 Sur 0 -- -- 52
2020-10-01 02:00:00 18.4 6 Sudeste 14 Sur 0 -- -- 48
2020-10-01 01:00:00 18.8 6 Sur 12 Sur 0 -- -- 49
2020-10-01 00:00:00 18.6 4 Sur 13 Sudeste 0 -- -- 50
2020-09-30 23:00:00 18.1 3 Sur 11 Sur 0 -- -- 52
2020-09-30 22:00:00 18.2 3 Sur 12 Sudoeste 0 -- -- 51
2020-09-30 21:00:00 18.8 4 Sur 8 Sur 0 -- -- 48
2020-09-30 20:00:00 21.1 4 Sur 8 Sudoeste 0 -- -- 42
2020-09-30 19:00:00 23.5 7 Sudoeste 12 Sudoeste 0 -- -- 38
2020-09-30 18:00:00 24.4 4 Oeste 13 Sudoeste 0 -- -- 38
2020-09-30 17:00:00 25 6 Sudoeste 13 Sudoeste 0 -- -- 37
2020-09-30 16:00:00 24.8 5 Sudoeste 14 Sudoeste 0 -- -- 36
2020-09-30 15:00:00 26 6 Sudoeste 14 Sudoeste 0 -- -- 35
2020-09-30 14:00:00 25.3 6 Sur 14 Noroeste 0 -- -- 37
2020-09-30 13:00:00 24.1 7 Norte 14 Norte 0 -- -- 39
2020-09-30 12:00:00 22.5 5 Noroeste 9 Norte 0 -- -- 41
2020-09-30 11:00:00 19.3 0 Calma 5 Noroeste 0 -- -- 49
2020-09-30 10:00:00 17.3 2 Norte 5 Norte 0 -- -- 55
2020-09-30 09:00:00 14.7 2 Sur 5 Sudeste 0 -- -- 64
2020-09-30 08:00:00 14.6 3 Sur 7 Este 0 -- -- 58
2020-09-30 07:00:00 16.1 3 Sudeste 19 Sur 0 -- -- 52
2020-09-30 06:00:00 15.9 5 Sur 13 Sur 0 -- -- 55
2020-09-30 05:00:00 15.9 2 Nordeste 10 Sudoeste 0 -- -- 46
2020-09-30 04:00:00 15.6 0 Calma 6 Sur 0 -- -- 47
2020-09-30 03:00:00 18 0 Calma 14 Sudeste 0 -- -- 41
2020-09-30 02:00:00 20 8 Sur 14 Sudeste 0 -- -- 37
2020-09-30 01:00:00 18.5 0 Calma 7 Sur 0 -- -- 40
2020-09-30 00:00:00 19.6 4 Sur 9 Sudeste 0 -- -- 37